sensor_id;sensor_type;location;lat;lon;timestamp;P1;durP1;ratioP1;P2;durP2;ratioP2
12707;SDS011;6418;50.824;4.718;2022-11-06T00:01:20;14.13;;;5.50;;
12707;SDS011;6418;50.824;4.718;2022-11-06T00:03:47;13.87;;;5.20;;
12707;SDS011;6418;50.824;4.718;2022-11-06T00:06:17;14.50;;;5.47;;
12707;SDS011;6418;50.824;4.718;2022-11-06T00:09:02;13.10;;;5.20;;
12707;SDS011;6418;50.824;4.718;2022-11-06T00:11:32;16.60;;;5.30;;
12707;SDS011;6418;50.824;4.718;2022-11-06T00:13:59;13.90;;;5.03;;
12707;SDS011;6418;50.824;4.718;2022-11-06T00:16:27;15.23;;;5.13;;
12707;SDS011;6418;50.824;4.718;2022-11-06T00:18:54;15.87;;;5.03;;
12707;SDS011;6418;50.824;4.718;2022-11-06T00:21:22;10.27;;;4.87;;
12707;SDS011;6418;50.824;4.718;2022-11-06T00:23:51;13.47;;;4.60;;
12707;SDS011;6418;50.824;4.718;2022-11-06T00:26:19;12.63;;;5.00;;
12707;SDS011;6418;50.824;4.718;2022-11-06T00:28:49;14.07;;;4.77;;
12707;SDS011;6418;50.824;4.718;2022-11-06T00:31:16;10.93;;;4.50;;
12707;SDS011;6418;50.824;4.718;2022-11-06T00:33:44;11.87;;;4.47;;
12707;SDS011;6418;50.824;4.718;2022-11-06T00:36:12;17.10;;;5.10;;
12707;SDS011;6418;50.824;4.718;2022-11-06T00:38:42;12.67;;;4.90;;
12707;SDS011;6418;50.824;4.718;2022-11-06T00:41:10;15.70;;;5.23;;
12707;SDS011;6418;50.824;4.718;2022-11-06T00:43:39;15.47;;;4.60;;
12707;SDS011;6418;50.824;4.718;2022-11-06T00:46:08;13.43;;;4.77;;
12707;SDS011;6418;50.824;4.718;2022-11-06T00:48:36;13.30;;;4.47;;
12707;SDS011;6418;50.824;4.718;2022-11-06T00:51:04;15.97;;;4.37;;
12707;SDS011;6418;50.824;4.718;2022-11-06T00:53:33;13.53;;;4.83;;
12707;SDS011;6418;50.824;4.718;2022-11-06T00:56:03;12.53;;;4.60;;
12707;SDS011;6418;50.824;4.718;2022-11-06T00:58:31;11.73;;;4.80;;
12707;SDS011;6418;50.824;4.718;2022-11-06T01:01:04;13.07;;;4.67;;
12707;SDS011;6418;50.824;4.718;2022-11-06T01:03:33;16.43;;;4.47;;
12707;SDS011;6418;50.824;4.718;2022-11-06T01:06:06;15.50;;;4.80;;
12707;SDS011;6418;50.824;4.718;2022-11-06T01:08:35;12.43;;;4.80;;
12707;SDS011;6418;50.824;4.718;2022-11-06T01:11:06;15.63;;;4.70;;
12707;SDS011;6418;50.824;4.718;2022-11-06T01:13:34;9.43;;;4.57;;
12707;SDS011;6418;50.824;4.718;2022-11-06T01:16:03;14.10;;;4.97;;
12707;SDS011;6418;50.824;4.718;2022-11-06T01:18:32;11.40;;;4.43;;
12707;SDS011;6418;50.824;4.718;2022-11-06T01:21:02;16.80;;;5.07;;
12707;SDS011;6418;50.824;4.718;2022-11-06T01:23:30;15.50;;;5.10;;
12707;SDS011;6418;50.824;4.718;2022-11-06T01:25:57;12.23;;;4.40;;
12707;SDS011;6418;50.824;4.718;2022-11-06T01:28:25;14.17;;;4.50;;
12707;SDS011;6418;50.824;4.718;2022-11-06T01:30:53;13.47;;;4.43;;
12707;SDS011;6418;50.824;4.718;2022-11-06T01:33:20;14.93;;;4.63;;
12707;SDS011;6418;50.824;4.718;2022-11-06T01:35:49;17.03;;;4.70;;
12707;SDS011;6418;50.824;4.718;2022-11-06T01:38:16;11.87;;;4.57;;
12707;SDS011;6418;50.824;4.718;2022-11-06T01:40:44;11.67;;;4.47;;
12707;SDS011;6418;50.824;4.718;2022-11-06T01:43:13;16.83;;;5.00;;
12707;SDS011;6418;50.824;4.718;2022-11-06T01:45:42;15.13;;;4.40;;
12707;SDS011;6418;50.824;4.718;2022-11-06T01:48:10;12.43;;;4.03;;
12707;SDS011;6418;50.824;4.718;2022-11-06T01:50:39;14.27;;;5.00;;
12707;SDS011;6418;50.824;4.718;2022-11-06T01:53:09;12.73;;;4.57;;
12707;SDS011;6418;50.824;4.718;2022-11-06T01:55:39;14.43;;;4.67;;
12707;SDS011;6418;50.824;4.718;2022-11-06T01:58:10;10.97;;;4.30;;
12707;SDS011;6418;50.824;4.718;2022-11-06T02:00:39;12.20;;;4.13;;
12707;SDS011;6418;50.824;4.718;2022-11-06T02:03:07;13.10;;;4.77;;
12707;SDS011;6418;50.824;4.718;2022-11-06T02:05:36;13.30;;;4.63;;
12707;SDS011;6418;50.824;4.718;2022-11-06T02:08:04;15.03;;;4.60;;
12707;SDS011;6418;50.824;4.718;2022-11-06T02:10:33;13.63;;;4.53;;
12707;SDS011;6418;50.824;4.718;2022-11-06T02:13:03;12.90;;;4.80;;
12707;SDS011;6418;50.824;4.718;2022-11-06T02:15:44;9.63;;;4.30;;
12707;SDS011;6418;50.824;4.718;2022-11-06T02:18:28;12.23;;;4.40;;
12707;SDS011;6418;50.824;4.718;2022-11-06T02:21:13;12.17;;;4.53;;
12707;SDS011;6418;50.824;4.718;2022-11-06T02:24:12;16.23;;;4.70;;
12707;SDS011;6418;50.824;4.718;2022-11-06T02:26:57;10.97;;;4.27;;
12707;SDS011;6418;50.824;4.718;2022-11-06T02:29:29;14.50;;;4.53;;
12707;SDS011;6418;50.824;4.718;2022-11-06T02:32:02;11.47;;;4.60;;
12707;SDS011;6418;50.824;4.718;2022-11-06T02:34:33;10.73;;;4.30;;
12707;SDS011;6418;50.824;4.718;2022-11-06T02:37:03;13.77;;;4.53;;
12707;SDS011;6418;50.824;4.718;2022-11-06T02:39:34;11.67;;;4.30;;
12707;SDS011;6418;50.824;4.718;2022-11-06T02:42:05;13.43;;;4.40;;
12707;SDS011;6418;50.824;4.718;2022-11-06T02:44:35;11.40;;;4.17;;
12707;SDS011;6418;50.824;4.718;2022-11-06T02:47:05;12.87;;;4.20;;
12707;SDS011;6418;50.824;4.718;2022-11-06T02:49:36;12.87;;;4.77;;
12707;SDS011;6418;50.824;4.718;2022-11-06T02:52:05;10.87;;;4.37;;
12707;SDS011;6418;50.824;4.718;2022-11-06T02:54:37;13.93;;;4.50;;
12707;SDS011;6418;50.824;4.718;2022-11-06T02:57:10;13.27;;;4.50;;
12707;SDS011;6418;50.824;4.718;2022-11-06T02:59:42;15.53;;;4.63;;
12707;SDS011;6418;50.824;4.718;2022-11-06T03:02:15;12.93;;;4.50;;
12707;SDS011;6418;50.824;4.718;2022-11-06T03:04:46;13.57;;;4.40;;
12707;SDS011;6418;50.824;4.718;2022-11-06T03:07:18;11.93;;;4.77;;
12707;SDS011;6418;50.824;4.718;2022-11-06T03:09:53;15.17;;;4.60;;
12707;SDS011;6418;50.824;4.718;2022-11-06T03:12:22;13.20;;;4.80;;
12707;SDS011;6418;50.824;4.718;2022-11-06T03:14:55;14.07;;;4.87;;
12707;SDS011;6418;50.824;4.718;2022-11-06T03:17:28;13.20;;;4.63;;
12707;SDS011;6418;50.824;4.718;2022-11-06T03:20:03;15.13;;;4.43;;
12707;SDS011;6418;50.824;4.718;2022-11-06T03:22:43;12.33;;;4.50;;
12707;SDS011;6418;50.824;4.718;2022-11-06T03:25:15;8.73;;;4.40;;
12707;SDS011;6418;50.824;4.718;2022-11-06T03:27:50;13.13;;;4.93;;
12707;SDS011;6418;50.824;4.718;2022-11-06T03:30:23;13.43;;;5.07;;
12707;SDS011;6418;50.824;4.718;2022-11-06T03:32:52;12.83;;;4.53;;
12707;SDS011;6418;50.824;4.718;2022-11-06T03:35:23;8.47;;;4.20;;
12707;SDS011;6418;50.824;4.718;2022-11-06T03:37:55;12.97;;;5.00;;
12707;SDS011;6418;50.824;4.718;2022-11-06T03:40:26;10.83;;;4.50;;
12707;SDS011;6418;50.824;4.718;2022-11-06T03:42:58;10.23;;;4.53;;
12707;SDS011;6418;50.824;4.718;2022-11-06T03:45:27;9.43;;;4.30;;
12707;SDS011;6418;50.824;4.718;2022-11-06T03:47:58;13.70;;;4.57;;
12707;SDS011;6418;50.824;4.718;2022-11-06T03:50:29;10.40;;;4.70;;
12707;SDS011;6418;50.824;4.718;2022-11-06T03:52:59;14.83;;;4.70;;
12707;SDS011;6418;50.824;4.718;2022-11-06T03:55:32;12.30;;;5.00;;
12707;SDS011;6418;50.824;4.718;2022-11-06T03:58:05;12.43;;;4.90;;
12707;SDS011;6418;50.824;4.718;2022-11-06T04:00:35;12.93;;;4.43;;
12707;SDS011;6418;50.824;4.718;2022-11-06T04:03:06;13.43;;;5.07;;
12707;SDS011;6418;50.824;4.718;2022-11-06T04:05:39;15.33;;;4.93;;
12707;SDS011;6418;50.824;4.718;2022-11-06T04:08:11;10.57;;;4.87;;
12707;SDS011;6418;50.824;4.718;2022-11-06T04:10:59;13.63;;;4.90;;
12707;SDS011;6418;50.824;4.718;2022-11-06T04:13:48;11.97;;;4.77;;
12707;SDS011;6418;50.824;4.718;2022-11-06T04:16:22;13.60;;;4.90;;
12707;SDS011;6418;50.824;4.718;2022-11-06T04:18:51;11.23;;;4.67;;
12707;SDS011;6418;50.824;4.718;2022-11-06T04:21:20;13.30;;;4.90;;
12707;SDS011;6418;50.824;4.718;2022-11-06T04:24:01;11.87;;;5.43;;
12707;SDS011;6418;50.824;4.718;2022-11-06T04:27:02;17.13;;;4.70;;
12707;SDS011;6418;50.824;4.718;2022-11-06T04:32:33;10.60;;;4.67;;
12707;SDS011;6418;50.824;4.718;2022-11-06T04:35:13;11.67;;;4.87;;
12707;SDS011;6418;50.824;4.718;2022-11-06T04:37:48;12.90;;;5.10;;
12707;SDS011;6418;50.824;4.718;2022-11-06T04:40:22;10.90;;;4.97;;
12707;SDS011;6418;50.824;4.718;2022-11-06T04:42:55;13.60;;;4.50;;
12707;SDS011;6418;50.824;4.718;2022-11-06T04:45:28;9.40;;;4.40;;
12707;SDS011;6418;50.824;4.718;2022-11-06T04:47:58;12.67;;;4.90;;
12707;SDS011;6418;50.824;4.718;2022-11-06T04:50:27;10.30;;;4.67;;
12707;SDS011;6418;50.824;4.718;2022-11-06T04:52:55;11.30;;;5.10;;
12707;SDS011;6418;50.824;4.718;2022-11-06T04:55:23;13.10;;;5.00;;
12707;SDS011;6418;50.824;4.718;2022-11-06T04:57:51;13.30;;;4.83;;
12707;SDS011;6418;50.824;4.718;2022-11-06T05:00:18;13.27;;;5.20;;
12707;SDS011;6418;50.824;4.718;2022-11-06T05:02:46;13.07;;;4.83;;
12707;SDS011;6418;50.824;4.718;2022-11-06T05:05:13;13.47;;;4.90;;
12707;SDS011;6418;50.824;4.718;2022-11-06T05:07:40;10.53;;;5.10;;
12707;SDS011;6418;50.824;4.718;2022-11-06T05:10:08;14.67;;;4.97;;
12707;SDS011;6418;50.824;4.718;2022-11-06T05:12:35;12.27;;;5.40;;
12707;SDS011;6418;50.824;4.718;2022-11-06T05:15:02;12.53;;;5.20;;
12707;SDS011;6418;50.824;4.718;2022-11-06T05:17:29;11.07;;;4.60;;
12707;SDS011;6418;50.824;4.718;2022-11-06T05:19:57;10.60;;;4.70;;
12707;SDS011;6418;50.824;4.718;2022-11-06T05:22:24;12.10;;;4.90;;
12707;SDS011;6418;50.824;4.718;2022-11-06T05:25:09;10.27;;;4.90;;
12707;SDS011;6418;50.824;4.718;2022-11-06T05:27:35;13.00;;;5.03;;
12707;SDS011;6418;50.824;4.718;2022-11-06T05:30:02;13.43;;;5.03;;
12707;SDS011;6418;50.824;4.718;2022-11-06T05:32:30;12.13;;;4.90;;
12707;SDS011;6418;50.824;4.718;2022-11-06T05:34:58;14.53;;;4.97;;
12707;SDS011;6418;50.824;4.718;2022-11-06T05:37:26;10.90;;;4.67;;
12707;SDS011;6418;50.824;4.718;2022-11-06T05:39:53;13.43;;;5.00;;
12707;SDS011;6418;50.824;4.718;2022-11-06T05:42:20;12.40;;;4.87;;
12707;SDS011;6418;50.824;4.718;2022-11-06T05:44:47;14.17;;;4.87;;
12707;SDS011;6418;50.824;4.718;2022-11-06T05:47:14;14.00;;;5.07;;
12707;SDS011;6418;50.824;4.718;2022-11-06T05:49:41;11.60;;;4.73;;
12707;SDS011;6418;50.824;4.718;2022-11-06T05:52:09;11.63;;;4.87;;
12707;SDS011;6418;50.824;4.718;2022-11-06T05:54:36;16.20;;;5.07;;
12707;SDS011;6418;50.824;4.718;2022-11-06T05:57:03;11.87;;;4.60;;
12707;SDS011;6418;50.824;4.718;2022-11-06T05:59:30;12.17;;;4.53;;
12707;SDS011;6418;50.824;4.718;2022-11-06T06:01:58;11.03;;;4.40;;
12707;SDS011;6418;50.824;4.718;2022-11-06T06:04:25;18.40;;;4.77;;
12707;SDS011;6418;50.824;4.718;2022-11-06T06:06:52;12.73;;;4.97;;
12707;SDS011;6418;50.824;4.718;2022-11-06T06:09:20;12.10;;;4.30;;
12707;SDS011;6418;50.824;4.718;2022-11-06T06:11:49;11.93;;;4.67;;
12707;SDS011;6418;50.824;4.718;2022-11-06T06:14:16;12.83;;;4.40;;
12707;SDS011;6418;50.824;4.718;2022-11-06T06:16:43;11.53;;;4.80;;
12707;SDS011;6418;50.824;4.718;2022-11-06T06:19:10;11.77;;;4.73;;
12707;SDS011;6418;50.824;4.718;2022-11-06T06:21:37;13.37;;;4.90;;
12707;SDS011;6418;50.824;4.718;2022-11-06T06:24:05;14.47;;;4.90;;
12707;SDS011;6418;50.824;4.718;2022-11-06T06:26:34;12.57;;;4.70;;
12707;SDS011;6418;50.824;4.718;2022-11-06T06:29:01;9.07;;;4.40;;
12707;SDS011;6418;50.824;4.718;2022-11-06T06:31:28;9.93;;;4.10;;
12707;SDS011;6418;50.824;4.718;2022-11-06T06:33:55;10.43;;;4.53;;
12707;SDS011;6418;50.824;4.718;2022-11-06T06:36:22;11.23;;;4.60;;
12707;SDS011;6418;50.824;4.718;2022-11-06T06:38:49;10.03;;;4.53;;
12707;SDS011;6418;50.824;4.718;2022-11-06T06:41:16;11.53;;;4.50;;
12707;SDS011;6418;50.824;4.718;2022-11-06T06:43:47;12.33;;;4.67;;
12707;SDS011;6418;50.824;4.718;2022-11-06T06:46:14;10.57;;;4.40;;
12707;SDS011;6418;50.824;4.718;2022-11-06T06:48:41;11.53;;;4.37;;
12707;SDS011;6418;50.824;4.718;2022-11-06T06:51:08;9.37;;;4.37;;
12707;SDS011;6418;50.824;4.718;2022-11-06T06:53:35;9.43;;;4.30;;
12707;SDS011;6418;50.824;4.718;2022-11-06T06:56:02;12.10;;;4.20;;
12707;SDS011;6418;50.824;4.718;2022-11-06T06:58:29;12.77;;;4.70;;
12707;SDS011;6418;50.824;4.718;2022-11-06T07:00:59;10.90;;;4.50;;
12707;SDS011;6418;50.824;4.718;2022-11-06T07:03:27;16.83;;;4.53;;
12707;SDS011;6418;50.824;4.718;2022-11-06T07:05:55;11.50;;;4.00;;
12707;SDS011;6418;50.824;4.718;2022-11-06T07:08:23;10.77;;;4.27;;
12707;SDS011;6418;50.824;4.718;2022-11-06T07:10:50;11.60;;;4.10;;
12707;SDS011;6418;50.824;4.718;2022-11-06T07:13:17;7.50;;;4.20;;
12707;SDS011;6418;50.824;4.718;2022-11-06T07:15:43;9.10;;;3.90;;
12707;SDS011;6418;50.824;4.718;2022-11-06T07:18:12;7.50;;;4.00;;
12707;SDS011;6418;50.824;4.718;2022-11-06T07:20:39;12.40;;;4.40;;
12707;SDS011;6418;50.824;4.718;2022-11-06T07:23:06;9.33;;;3.87;;
12707;SDS011;6418;50.824;4.718;2022-11-06T07:25:36;11.20;;;4.20;;
12707;SDS011;6418;50.824;4.718;2022-11-06T07:28:04;11.50;;;4.40;;
12707;SDS011;6418;50.824;4.718;2022-11-06T07:30:32;9.53;;;4.47;;
12707;SDS011;6418;50.824;4.718;2022-11-06T07:33:01;10.97;;;4.07;;
12707;SDS011;6418;50.824;4.718;2022-11-06T07:35:31;8.77;;;4.03;;
12707;SDS011;6418;50.824;4.718;2022-11-06T07:38:01;9.07;;;4.17;;
12707;SDS011;6418;50.824;4.718;2022-11-06T07:40:29;12.47;;;4.10;;
12707;SDS011;6418;50.824;4.718;2022-11-06T07:43:01;13.17;;;4.30;;
12707;SDS011;6418;50.824;4.718;2022-11-06T07:45:29;8.73;;;3.90;;
12707;SDS011;6418;50.824;4.718;2022-11-06T07:47:55;12.70;;;4.13;;
12707;SDS011;6418;50.824;4.718;2022-11-06T07:50:23;11.07;;;4.10;;
12707;SDS011;6418;50.824;4.718;2022-11-06T07:52:51;11.27;;;4.10;;
12707;SDS011;6418;50.824;4.718;2022-11-06T07:55:19;12.90;;;4.07;;
12707;SDS011;6418;50.824;4.718;2022-11-06T07:57:46;8.07;;;3.90;;
12707;SDS011;6418;50.824;4.718;2022-11-06T08:00:13;14.80;;;4.30;;
12707;SDS011;6418;50.824;4.718;2022-11-06T08:02:40;12.67;;;4.10;;
12707;SDS011;6418;50.824;4.718;2022-11-06T08:05:07;8.97;;;3.73;;
12707;SDS011;6418;50.824;4.718;2022-11-06T08:07:35;9.83;;;3.90;;
12707;SDS011;6418;50.824;4.718;2022-11-06T08:10:03;12.80;;;4.27;;
12707;SDS011;6418;50.824;4.718;2022-11-06T08:12:31;10.27;;;4.03;;
12707;SDS011;6418;50.824;4.718;2022-11-06T08:14:57;9.27;;;4.10;;
12707;SDS011;6418;50.824;4.718;2022-11-06T08:17:26;7.57;;;4.00;;
12707;SDS011;6418;50.824;4.718;2022-11-06T08:19:54;10.07;;;4.33;;
12707;SDS011;6418;50.824;4.718;2022-11-06T08:22:21;8.83;;;3.80;;
12707;SDS011;6418;50.824;4.718;2022-11-06T08:24:47;12.63;;;4.13;;
12707;SDS011;6418;50.824;4.718;2022-11-06T08:27:16;8.83;;;3.90;;
12707;SDS011;6418;50.824;4.718;2022-11-06T08:29:43;10.47;;;3.87;;
12707;SDS011;6418;50.824;4.718;2022-11-06T08:32:10;9.93;;;3.90;;
12707;SDS011;6418;50.824;4.718;2022-11-06T08:34:37;10.50;;;4.07;;
12707;SDS011;6418;50.824;4.718;2022-11-06T08:37:04;9.70;;;4.20;;
12707;SDS011;6418;50.824;4.718;2022-11-06T08:39:30;14.47;;;4.10;;
12707;SDS011;6418;50.824;4.718;2022-11-06T08:41:57;11.47;;;4.23;;
12707;SDS011;6418;50.824;4.718;2022-11-06T08:44:27;9.43;;;4.03;;
12707;SDS011;6418;50.824;4.718;2022-11-06T08:46:54;8.73;;;3.80;;
12707;SDS011;6418;50.824;4.718;2022-11-06T08:49:21;10.87;;;3.97;;
12707;SDS011;6418;50.824;4.718;2022-11-06T08:51:48;12.43;;;4.10;;
12707;SDS011;6418;50.824;4.718;2022-11-06T08:54:15;9.37;;;3.80;;
12707;SDS011;6418;50.824;4.718;2022-11-06T08:56:42;14.57;;;6.33;;
12707;SDS011;6418;50.824;4.718;2022-11-06T08:59:08;15.00;;;5.63;;
12707;SDS011;6418;50.824;4.718;2022-11-06T09:01:37;10.13;;;4.20;;
12707;SDS011;6418;50.824;4.718;2022-11-06T09:04:04;8.37;;;4.10;;
12707;SDS011;6418;50.824;4.718;2022-11-06T09:06:32;10.27;;;3.90;;
12707;SDS011;6418;50.824;4.718;2022-11-06T09:08:58;10.67;;;4.83;;
12707;SDS011;6418;50.824;4.718;2022-11-06T09:11:25;11.50;;;4.00;;
12707;SDS011;6418;50.824;4.718;2022-11-06T09:13:52;10.00;;;4.00;;
12707;SDS011;6418;50.824;4.718;2022-11-06T09:16:19;12.20;;;4.00;;
12707;SDS011;6418;50.824;4.718;2022-11-06T09:18:48;11.40;;;4.60;;
12707;SDS011;6418;50.824;4.718;2022-11-06T09:21:15;10.30;;;4.17;;
12707;SDS011;6418;50.824;4.718;2022-11-06T09:23:42;11.67;;;4.17;;
12707;SDS011;6418;50.824;4.718;2022-11-06T09:26:11;7.53;;;3.70;;
12707;SDS011;6418;50.824;4.718;2022-11-06T09:28:37;14.10;;;4.57;;
12707;SDS011;6418;50.824;4.718;2022-11-06T09:31:04;9.77;;;4.03;;
12707;SDS011;6418;50.824;4.718;2022-11-06T09:33:32;16.67;;;4.60;;
12707;SDS011;6418;50.824;4.718;2022-11-06T09:36:01;9.23;;;4.50;;
12707;SDS011;6418;50.824;4.718;2022-11-06T09:38:29;14.70;;;4.40;;
12707;SDS011;6418;50.824;4.718;2022-11-06T09:40:57;9.53;;;4.13;;
12707;SDS011;6418;50.824;4.718;2022-11-06T09:43:36;11.00;;;4.50;;
12707;SDS011;6418;50.824;4.718;2022-11-06T09:46:17;10.07;;;3.93;;
12707;SDS011;6418;50.824;4.718;2022-11-06T09:48:48;10.60;;;3.80;;
12707;SDS011;6418;50.824;4.718;2022-11-06T09:51:23;10.13;;;3.77;;
12707;SDS011;6418;50.824;4.718;2022-11-06T09:53:57;11.73;;;3.90;;
12707;SDS011;6418;50.824;4.718;2022-11-06T09:56:29;9.70;;;3.70;;
12707;SDS011;6418;50.824;4.718;2022-11-06T09:58:59;12.00;;;3.97;;
12707;SDS011;6418;50.824;4.718;2022-11-06T10:01:32;9.53;;;3.80;;
12707;SDS011;6418;50.824;4.718;2022-11-06T10:04:03;19.77;;;7.17;;
12707;SDS011;6418;50.824;4.718;2022-11-06T10:06:32;11.83;;;4.20;;
12707;SDS011;6418;50.824;4.718;2022-11-06T10:09:00;10.00;;;3.93;;
12707;SDS011;6418;50.824;4.718;2022-11-06T10:11:43;12.60;;;4.60;;
12707;SDS011;6418;50.824;4.718;2022-11-06T10:14:20;9.37;;;4.20;;
12707;SDS011;6418;50.824;4.718;2022-11-06T10:16:57;12.80;;;4.87;;
12707;SDS011;6418;50.824;4.718;2022-11-06T10:19:34;12.87;;;4.80;;
12707;SDS011;6418;50.824;4.718;2022-11-06T10:22:10;14.17;;;4.20;;
12707;SDS011;6418;50.824;4.718;2022-11-06T10:24:43;11.87;;;4.47;;
12707;SDS011;6418;50.824;4.718;2022-11-06T10:27:13;15.20;;;5.43;;
12707;SDS011;6418;50.824;4.718;2022-11-06T10:29:46;11.90;;;3.97;;
12707;SDS011;6418;50.824;4.718;2022-11-06T10:32:46;12.47;;;4.50;;
12707;SDS011;6418;50.824;4.718;2022-11-06T10:35:30;13.43;;;5.37;;
12707;SDS011;6418;50.824;4.718;2022-11-06T10:38:04;13.63;;;4.77;;
12707;SDS011;6418;50.824;4.718;2022-11-06T10:40:35;14.03;;;4.53;;
12707;SDS011;6418;50.824;4.718;2022-11-06T10:43:06;15.27;;;5.77;;
12707;SDS011;6418;50.824;4.718;2022-11-06T10:45:40;14.63;;;5.47;;
12707;SDS011;6418;50.824;4.718;2022-11-06T10:48:16;17.97;;;4.93;;
12707;SDS011;6418;50.824;4.718;2022-11-06T10:50:51;10.67;;;4.07;;
12707;SDS011;6418;50.824;4.718;2022-11-06T10:53:27;12.37;;;4.73;;
12707;SDS011;6418;50.824;4.718;2022-11-06T10:59:00;8.93;;;3.90;;
12707;SDS011;6418;50.824;4.718;2022-11-06T11:01:27;10.53;;;3.70;;
12707;SDS011;6418;50.824;4.718;2022-11-06T11:03:54;13.17;;;4.53;;
12707;SDS011;6418;50.824;4.718;2022-11-06T11:06:21;11.23;;;4.53;;
12707;SDS011;6418;50.824;4.718;2022-11-06T11:08:50;15.47;;;5.67;;
12707;SDS011;6418;50.824;4.718;2022-11-06T11:11:18;13.53;;;4.40;;
12707;SDS011;6418;50.824;4.718;2022-11-06T11:13:50;15.40;;;5.20;;
12707;SDS011;6418;50.824;4.718;2022-11-06T11:16:33;13.03;;;4.37;;
12707;SDS011;6418;50.824;4.718;2022-11-06T11:19:13;8.13;;;3.10;;
12707;SDS011;6418;50.824;4.718;2022-11-06T11:21:51;13.03;;;3.50;;
12707;SDS011;6418;50.824;4.718;2022-11-06T11:24:20;6.83;;;3.00;;
12707;SDS011;6418;50.824;4.718;2022-11-06T11:26:48;10.77;;;4.03;;
12707;SDS011;6418;50.824;4.718;2022-11-06T11:29:16;11.10;;;3.60;;
12707;SDS011;6418;50.824;4.718;2022-11-06T11:31:49;12.87;;;4.27;;
12707;SDS011;6418;50.824;4.718;2022-11-06T11:34:19;7.13;;;3.30;;
12707;SDS011;6418;50.824;4.718;2022-11-06T11:36:47;10.83;;;4.30;;
12707;SDS011;6418;50.824;4.718;2022-11-06T11:39:17;11.87;;;4.43;;
12707;SDS011;6418;50.824;4.718;2022-11-06T11:41:47;14.93;;;4.80;;
12707;SDS011;6418;50.824;4.718;2022-11-06T11:44:15;12.23;;;4.63;;
12707;SDS011;6418;50.824;4.718;2022-11-06T11:46:46;9.43;;;4.00;;
12707;SDS011;6418;50.824;4.718;2022-11-06T11:49:24;9.73;;;3.50;;
12707;SDS011;6418;50.824;4.718;2022-11-06T11:51:53;6.17;;;3.07;;
12707;SDS011;6418;50.824;4.718;2022-11-06T11:54:22;9.60;;;3.10;;
12707;SDS011;6418;50.824;4.718;2022-11-06T11:56:53;11.30;;;3.23;;
12707;SDS011;6418;50.824;4.718;2022-11-06T11:59:24;7.20;;;3.13;;
12707;SDS011;6418;50.824;4.718;2022-11-06T12:01:53;7.00;;;3.27;;
12707;SDS011;6418;50.824;4.718;2022-11-06T12:04:26;9.27;;;3.40;;
12707;SDS011;6418;50.824;4.718;2022-11-06T12:06:57;11.17;;;3.30;;
12707;SDS011;6418;50.824;4.718;2022-11-06T12:09:26;10.63;;;3.23;;
12707;SDS011;6418;50.824;4.718;2022-11-06T12:11:57;12.00;;;3.57;;
12707;SDS011;6418;50.824;4.718;2022-11-06T12:14:30;8.53;;;3.53;;
12707;SDS011;6418;50.824;4.718;2022-11-06T12:17:10;11.27;;;3.90;;
12707;SDS011;6418;50.824;4.718;2022-11-06T12:19:44;8.03;;;3.10;;
12707;SDS011;6418;50.824;4.718;2022-11-06T12:22:16;11.40;;;3.37;;
12707;SDS011;6418;50.824;4.718;2022-11-06T12:24:48;10.17;;;3.37;;
12707;SDS011;6418;50.824;4.718;2022-11-06T12:27:21;7.83;;;3.13;;
12707;SDS011;6418;50.824;4.718;2022-11-06T12:29:55;6.47;;;3.17;;
12707;SDS011;6418;50.824;4.718;2022-11-06T12:32:31;11.10;;;3.60;;
12707;SDS011;6418;50.824;4.718;2022-11-06T12:35:10;5.80;;;3.20;;
12707;SDS011;6418;50.824;4.718;2022-11-06T12:37:47;11.07;;;3.50;;
12707;SDS011;6418;50.824;4.718;2022-11-06T12:40:24;10.43;;;3.63;;
12707;SDS011;6418;50.824;4.718;2022-11-06T12:43:09;6.53;;;3.20;;
12707;SDS011;6418;50.824;4.718;2022-11-06T12:45:46;9.97;;;3.23;;
12707;SDS011;6418;50.824;4.718;2022-11-06T12:48:26;8.50;;;3.33;;
12707;SDS011;6418;50.824;4.718;2022-11-06T12:51:10;10.30;;;3.50;;
12707;SDS011;6418;50.824;4.718;2022-11-06T12:53:47;8.07;;;3.60;;
12707;SDS011;6418;50.824;4.718;2022-11-06T12:56:24;6.67;;;3.40;;
12707;SDS011;6418;50.824;4.718;2022-11-06T12:59:01;6.57;;;3.23;;
12707;SDS011;6418;50.824;4.718;2022-11-06T13:01:44;10.50;;;4.00;;
12707;SDS011;6418;50.824;4.718;2022-11-06T13:04:35;8.30;;;3.27;;
12707;SDS011;6418;50.824;4.718;2022-11-06T13:10:20;8.63;;;3.67;;
12707;SDS011;6418;50.824;4.718;2022-11-06T13:12:57;4.37;;;3.03;;
12707;SDS011;6418;50.824;4.718;2022-11-06T13:15:35;9.00;;;4.20;;
12707;SDS011;6418;50.824;4.718;2022-11-06T13:18:08;9.90;;;4.30;;
12707;SDS011;6418;50.824;4.718;2022-11-06T13:20:42;13.43;;;3.97;;
12707;SDS011;6418;50.824;4.718;2022-11-06T13:23:15;9.50;;;3.70;;
12707;SDS011;6418;50.824;4.718;2022-11-06T13:25:52;8.33;;;3.70;;
12707;SDS011;6418;50.824;4.718;2022-11-06T13:28:28;8.47;;;3.80;;
12707;SDS011;6418;50.824;4.718;2022-11-06T13:30:59;10.13;;;3.73;;
12707;SDS011;6418;50.824;4.718;2022-11-06T13:33:28;9.60;;;3.80;;
12707;SDS011;6418;50.824;4.718;2022-11-06T13:35:59;9.97;;;3.77;;
12707;SDS011;6418;50.824;4.718;2022-11-06T13:38:28;8.07;;;4.20;;
12707;SDS011;6418;50.824;4.718;2022-11-06T13:40:59;7.67;;;3.70;;
12707;SDS011;6418;50.824;4.718;2022-11-06T13:43:32;9.43;;;4.23;;
12707;SDS011;6418;50.824;4.718;2022-11-06T13:46:06;11.97;;;5.00;;
12707;SDS011;6418;50.824;4.718;2022-11-06T13:48:42;12.43;;;4.70;;
12707;SDS011;6418;50.824;4.718;2022-11-06T13:51:18;12.03;;;5.20;;
12707;SDS011;6418;50.824;4.718;2022-11-06T13:53:52;11.83;;;5.20;;
12707;SDS011;6418;50.824;4.718;2022-11-06T13:56:39;18.57;;;5.97;;
12707;SDS011;6418;50.824;4.718;2022-11-06T13:59:19;13.00;;;5.57;;
12707;SDS011;6418;50.824;4.718;2022-11-06T14:02:11;16.83;;;6.10;;
12707;SDS011;6418;50.824;4.718;2022-11-06T14:05:08;15.43;;;5.57;;
12707;SDS011;6418;50.824;4.718;2022-11-06T14:08:00;14.13;;;5.77;;
12707;SDS011;6418;50.824;4.718;2022-11-06T14:10:31;12.80;;;5.10;;
12707;SDS011;6418;50.824;4.718;2022-11-06T14:13:01;17.60;;;7.10;;
12707;SDS011;6418;50.824;4.718;2022-11-06T14:15:33;18.43;;;6.00;;
12707;SDS011;6418;50.824;4.718;2022-11-06T14:18:04;15.43;;;6.33;;
12707;SDS011;6418;50.824;4.718;2022-11-06T14:20:32;12.37;;;6.30;;
12707;SDS011;6418;50.824;4.718;2022-11-06T14:26:07;10.67;;;4.77;;
12707;SDS011;6418;50.824;4.718;2022-11-06T14:28:36;11.40;;;4.40;;
12707;SDS011;6418;50.824;4.718;2022-11-06T14:31:05;11.60;;;4.80;;
12707;SDS011;6418;50.824;4.718;2022-11-06T14:36:28;11.90;;;4.50;;
12707;SDS011;6418;50.824;4.718;2022-11-06T14:39:00;8.63;;;3.87;;
12707;SDS011;6418;50.824;4.718;2022-11-06T14:44:25;7.83;;;4.00;;
12707;SDS011;6418;50.824;4.718;2022-11-06T14:46:58;8.27;;;3.80;;
12707;SDS011;6418;50.824;4.718;2022-11-06T14:49:32;11.40;;;4.43;;
12707;SDS011;6418;50.824;4.718;2022-11-06T14:52:02;8.10;;;4.07;;
12707;SDS011;6418;50.824;4.718;2022-11-06T14:54:32;9.37;;;4.37;;
12707;SDS011;6418;50.824;4.718;2022-11-06T14:57:02;10.17;;;4.10;;
12707;SDS011;6418;50.824;4.718;2022-11-06T14:59:31;8.33;;;3.90;;
12707;SDS011;6418;50.824;4.718;2022-11-06T15:02:01;7.37;;;3.80;;
12707;SDS011;6418;50.824;4.718;2022-11-06T15:04:40;11.50;;;4.23;;
12707;SDS011;6418;50.824;4.718;2022-11-06T15:07:24;9.70;;;4.10;;
12707;SDS011;6418;50.824;4.718;2022-11-06T15:09:54;5.40;;;3.60;;
12707;SDS011;6418;50.824;4.718;2022-11-06T15:12:29;8.60;;;4.00;;
12707;SDS011;6418;50.824;4.718;2022-11-06T15:15:29;9.77;;;4.07;;
12707;SDS011;6418;50.824;4.718;2022-11-06T15:17:57;10.07;;;4.70;;
12707;SDS011;6418;50.824;4.718;2022-11-06T15:20:26;9.03;;;4.27;;
12707;SDS011;6418;50.824;4.718;2022-11-06T15:23:00;11.53;;;4.23;;
12707;SDS011;6418;50.824;4.718;2022-11-06T15:25:31;6.43;;;3.87;;
12707;SDS011;6418;50.824;4.718;2022-11-06T15:28:00;9.27;;;4.30;;
12707;SDS011;6418;50.824;4.718;2022-11-06T15:30:32;8.40;;;4.20;;
12707;SDS011;6418;50.824;4.718;2022-11-06T15:33:08;7.70;;;4.10;;